Time;durP1;ratioP1;P1;durP2;ratioP2;P2;SDS_P1;SDS_P2;PMS_P1;PMS_P2;Temp;Humidity;BMP_temperature;BMP_pressure;BME280_temperature;BME280_humidity;BME280_pressure;Samples;Min_cycle;Max_cycle;Signal;HPM_P1;HPM_P2
2021/08/20 00:02:22;;;;;;;1.70;1.33;;;18.10;98.00;;;;;;5072949;28;20457;-74
2021/08/20 00:04:49;;;;;;;1.30;1.23;;;18.10;98.00;;;;;;5072886;28;20492;-73
2021/08/20 00:07:16;;;;;;;1.80;1.40;;;18.00;98.00;;;;;;5055016;28;20549;-75
2021/08/20 00:09:43;;;;;;;1.20;1.10;;;18.00;98.00;;;;;;5072834;28;21010;-74
2021/08/20 00:12:10;;;;;;;1.20;1.10;;;18.10;98.00;;;;;;5072738;28;20481;-73
2021/08/20 00:14:39;;;;;;;1.20;1.00;;;18.10;98.00;;;;;;5072892;28;20467;-73
2021/08/20 00:17:06;;;;;;;1.30;1.10;;;18.10;98.00;;;;;;5072648;28;20496;-73
2021/08/20 00:19:34;;;;;;;1.40;1.20;;;18.00;98.00;;;;;;5055011;28;20499;-73
2021/08/20 00:22:01;;;;;;;1.30;1.10;;;18.00;98.00;;;;;;5072468;28;20449;-73
2021/08/20 00:24:28;;;;;;;1.30;1.10;;;17.90;98.00;;;;;;5072445;28;20488;-74
2021/08/20 00:26:55;;;;;;;2.13;1.60;;;18.00;98.00;;;;;;5072445;28;20878;-74
2021/08/20 00:29:22;;;;;;;1.20;1.10;;;18.10;98.00;;;;;;5072071;28;21012;-73
2021/08/20 00:31:50;;;;;;;1.20;1.20;;;18.00;98.00;;;;;;5072129;28;20576;-75
2021/08/20 00:34:17;;;;;;;1.57;1.10;;;18.10;98.00;;;;;;5072303;28;20489;-73
2021/08/20 00:36:45;;;;;;;1.20;1.10;;;18.00;98.00;;;;;;5071786;28;20491;-74
2021/08/20 00:39:13;;;;;;;1.47;1.37;;;18.00;98.00;;;;;;5054347;28;20975;-75
2021/08/20 00:41:40;;;;;;;1.20;1.20;;;17.90;98.00;;;;;;5072288;28;20484;-74
2021/08/20 00:44:08;;;;;;;1.20;1.00;;;18.00;98.00;;;;;;5072086;28;20456;-73
2021/08/20 00:46:35;;;;;;;1.30;1.30;;;18.10;98.00;;;;;;5054475;28;20489;-73
2021/08/20 00:49:03;;;;;;;1.20;1.10;;;18.10;98.00;;;;;;5072141;28;20506;-73
2021/08/20 00:51:34;;;;;;;1.20;1.00;;;18.00;98.00;;;;;;5072190;28;21010;-73
2021/08/20 00:54:01;;;;;;;1.30;1.20;;;18.00;98.00;;;;;;5072273;28;20457;-74
2021/08/20 00:56:28;;;;;;;1.27;1.13;;;18.10;98.00;;;;;;5072024;28;20453;-73
2021/08/20 00:58:56;;;;;;;1.53;1.23;;;18.10;98.00;;;;;;5071857;28;20518;-73
2021/08/20 01:01:23;;;;;;;1.87;1.47;;;18.10;98.00;;;;;;5054046;28;20488;-73
2021/08/20 01:03:50;;;;;;;1.40;1.33;;;18.00;98.00;;;;;;5071593;28;20492;-73
2021/08/20 01:06:18;;;;;;;1.47;1.27;;;17.80;98.00;;;;;;5071851;28;20492;-73
2021/08/20 01:08:47;;;;;;;1.20;1.00;;;17.60;98.00;;;;;;5071373;28;20464;-73
2021/08/20 01:11:14;;;;;;;1.20;1.00;;;17.60;98.00;;;;;;5053963;28;20484;-73
2021/08/20 01:13:42;;;;;;;1.20;1.10;;;17.60;98.00;;;;;;5071529;28;20971;-74
2021/08/20 01:16:10;;;;;;;1.20;1.20;;;17.60;98.00;;;;;;5071520;28;20497;-73
2021/08/20 01:18:39;;;;;;;1.20;1.20;;;17.60;98.00;;;;;;5071300;28;20452;-73
2021/08/20 01:21:08;;;;;;;1.30;1.20;;;17.70;98.00;;;;;;5071370;28;20517;-73
2021/08/20 01:23:37;;;;;;;1.50;1.50;;;17.80;98.00;;;;;;5071262;28;20461;-73
2021/08/20 01:26:06;;;;;;;1.77;1.50;;;17.80;98.00;;;;;;5071256;28;20503;-73
2021/08/20 01:28:33;;;;;;;1.30;1.20;;;17.90;98.00;;;;;;5071246;28;20518;-73
2021/08/20 01:31:01;;;;;;;1.70;1.37;;;17.90;98.00;;;;;;5053481;28;20546;-73
2021/08/20 01:33:29;;;;;;;1.53;1.37;;;17.90;98.00;;;;;;5071101;28;20594;-74
2021/08/20 01:35:56;;;;;;;1.20;1.20;;;17.90;98.00;;;;;;5071170;28;20488;-73
2021/08/20 01:38:25;;;;;;;2.07;1.40;;;17.90;98.00;;;;;;5071223;28;21038;-73
2021/08/20 01:41:01;;;;;;;1.20;1.10;;;18.00;98.00;;;;;;5053279;28;20506;-74
2021/08/20 01:43:29;;;;;;;1.30;1.10;;;18.00;98.00;;;;;;5070453;28;20504;-73
2021/08/20 01:45:56;;;;;;;1.30;1.10;;;17.90;98.00;;;;;;5053348;28;20444;-75
2021/08/20 01:48:23;;;;;;;1.30;1.20;;;17.90;98.00;;;;;;5070305;28;20488;-74
2021/08/20 01:50:50;;;;;;;1.23;1.10;;;17.70;98.00;;;;;;5053294;28;20523;-74
2021/08/20 01:53:17;;;;;;;1.20;1.00;;;17.50;98.00;;;;;;5071030;28;20514;-73
2021/08/20 01:55:46;;;;;;;1.20;1.10;;;17.40;98.00;;;;;;5071019;28;20492;-75
2021/08/20 01:58:14;;;;;;;1.20;1.10;;;17.40;98.00;;;;;;5053272;28;20543;-73
2021/08/20 02:00:42;;;;;;;1.80;1.43;;;17.40;98.00;;;;;;5070918;28;21006;-74
2021/08/20 02:03:10;;;;;;;1.50;1.20;;;17.40;98.00;;;;;;5070906;28;20500;-73
2021/08/20 02:05:37;;;;;;;1.20;1.10;;;17.40;98.00;;;;;;5070957;28;20499;-73
2021/08/20 02:08:05;;;;;;;1.20;1.10;;;17.50;98.00;;;;;;5070970;28;20468;-75
2021/08/20 02:10:32;;;;;;;1.70;1.37;;;17.70;98.00;;;;;;5051743;28;20503;-73
2021/08/20 02:12:59;;;;;;;1.50;1.10;;;17.80;98.00;;;;;;5053514;28;20537;-73
2021/08/20 02:15:27;;;;;;;1.20;1.10;;;17.60;98.00;;;;;;5070980;28;20857;-73
2021/08/20 02:17:55;;;;;;;1.20;1.10;;;17.50;98.00;;;;;;5070782;28;20514;-73
2021/08/20 02:20:22;;;;;;;1.30;1.10;;;17.40;98.00;;;;;;5070874;28;21036;-73
2021/08/20 02:22:49;;;;;;;1.30;1.07;;;17.40;98.00;;;;;;5052969;28;20988;-73
2021/08/20 02:25:16;;;;;;;1.20;1.10;;;17.40;98.00;;;;;;5070748;28;20489;-73
2021/08/20 02:27:42;;;;;;;1.97;1.20;;;17.40;98.00;;;;;;5070570;28;20510;-74
2021/08/20 02:30:10;;;;;;;1.20;1.00;;;17.30;98.00;;;;;;5070733;28;20489;-73
2021/08/20 02:32:37;;;;;;;1.20;1.10;;;17.40;98.00;;;;;;5070282;28;20549;-73
2021/08/20 02:35:07;;;;;;;1.20;1.00;;;17.50;98.00;;;;;;5070686;28;20449;-74
2021/08/20 02:37:34;;;;;;;1.30;1.20;;;17.50;98.00;;;;;;5070812;28;20887;-73
2021/08/20 02:40:01;;;;;;;1.93;1.40;;;17.50;98.00;;;;;;5070594;28;20452;-74
2021/08/20 02:42:28;;;;;;;1.70;1.50;;;17.50;98.00;;;;;;5070643;28;20663;-73
2021/08/20 02:44:55;;;;;;;2.07;1.20;;;17.50;98.00;;;;;;5070592;28;20592;-74
2021/08/20 02:47:22;;;;;;;1.30;1.20;;;17.40;98.00;;;;;;5052708;28;20971;-73
2021/08/20 02:49:49;;;;;;;1.60;1.20;;;17.30;98.00;;;;;;5070408;28;20457;-74
2021/08/20 02:52:17;;;;;;;1.20;1.00;;;17.40;98.00;;;;;;5070294;28;20538;-73
2021/08/20 02:54:44;;;;;;;1.20;1.00;;;17.40;98.00;;;;;;5070415;28;20488;-73
2021/08/20 02:57:11;;;;;;;1.53;1.13;;;17.40;98.00;;;;;;5070371;28;20483;-73
2021/08/20 02:59:38;;;;;;;1.90;1.53;;;17.50;98.00;;;;;;5070665;28;20464;-73
2021/08/20 03:02:07;;;;;;;1.23;1.13;;;17.70;98.00;;;;;;5056266;28;20522;-73
2021/08/20 03:04:35;;;;;;;1.20;1.00;;;17.60;98.00;;;;;;5073722;28;20480;-74
2021/08/20 03:07:02;;;;;;;1.20;1.10;;;17.50;98.00;;;;;;5073987;28;21016;-73
2021/08/20 03:09:30;;;;;;;1.23;1.23;;;17.50;98.00;;;;;;5073901;28;20491;-73
2021/08/20 03:11:57;;;;;;;1.30;1.30;;;17.50;98.00;;;;;;5056268;28;20553;-73
2021/08/20 03:14:24;;;;;;;1.53;1.40;;;17.50;98.00;;;;;;5073880;28;20595;-74
2021/08/20 03:16:51;;;;;;;1.40;1.20;;;17.40;98.00;;;;;;5073835;28;20475;-74
2021/08/20 03:19:18;;;;;;;2.03;1.40;;;17.40;98.00;;;;;;5073790;28;20457;-73
2021/08/20 03:21:45;;;;;;;1.63;1.10;;;17.40;98.00;;;;;;5073866;28;20578;-74
2021/08/20 03:24:12;;;;;;;1.20;1.10;;;17.50;98.00;;;;;;5073981;28;20488;-73
2021/08/20 03:26:40;;;;;;;1.50;1.40;;;17.60;98.00;;;;;;5073722;28;20543;-73
2021/08/20 03:29:07;;;;;;;1.67;1.20;;;17.50;98.00;;;;;;5073672;28;20457;-74
2021/08/20 03:31:34;;;;;;;1.70;1.30;;;17.40;98.00;;;;;;5073758;28;20491;-73
2021/08/20 03:34:01;;;;;;;1.30;1.10;;;17.40;98.00;;;;;;5073992;28;20464;-73
2021/08/20 03:36:29;;;;;;;1.20;1.03;;;17.50;98.00;;;;;;5073997;28;20481;-74
2021/08/20 03:38:56;;;;;;;1.30;1.23;;;17.50;98.00;;;;;;5073453;28;20527;-73
2021/08/20 03:41:23;;;;;;;1.20;1.10;;;17.50;98.00;;;;;;5073424;28;20496;-74
2021/08/20 03:43:52;;;;;;;1.60;1.30;;;17.50;98.00;;;;;;5055644;28;20512;-75
2021/08/20 03:46:19;;;;;;;1.43;1.30;;;17.40;98.00;;;;;;5073282;28;20457;-74
2021/08/20 03:48:46;;;;;;;1.27;1.23;;;17.40;98.00;;;;;;5073294;28;20481;-73
2021/08/20 03:51:14;;;;;;;1.40;1.10;;;17.50;98.00;;;;;;5073156;28;20967;-73
2021/08/20 03:53:41;;;;;;;1.20;1.00;;;17.40;98.00;;;;;;5055600;28;20883;-73
2021/08/20 03:56:08;;;;;;;2.13;1.30;;;17.50;98.00;;;;;;5073189;28;20452;-73
2021/08/20 03:58:35;;;;;;;1.20;1.10;;;17.50;98.00;;;;;;5072951;28;20496;-73
2021/08/20 04:01:06;;;;;;;1.23;1.17;;;17.70;98.00;;;;;;5073008;28;20517;-73
2021/08/20 04:03:33;;;;;;;1.30;1.10;;;17.50;98.00;;;;;;5072847;28;20484;-73
2021/08/20 04:06:00;;;;;;;1.50;1.40;;;17.40;98.00;;;;;;5072951;28;20513;-73
2021/08/20 04:08:27;;;;;;;1.20;1.17;;;17.40;98.00;;;;;;5072832;28;20457;-73
2021/08/20 04:10:54;;;;;;;1.40;1.10;;;17.40;98.00;;;;;;5072538;28;20538;-73
2021/08/20 04:13:21;;;;;;;1.50;1.30;;;17.40;98.00;;;;;;5072156;28;20516;-73
2021/08/20 04:15:48;;;;;;;1.20;1.10;;;17.50;98.00;;;;;;5072811;28;20456;-73
2021/08/20 04:18:16;;;;;;;1.20;1.20;;;17.50;98.00;;;;;;5072629;28;20477;-74
2021/08/20 04:20:43;;;;;;;4.50;1.23;;;17.50;98.00;;;;;;5072592;28;20484;-74
2021/08/20 04:23:10;;;;;;;1.73;1.40;;;17.40;98.00;;;;;;5072804;28;20659;-73
2021/08/20 04:25:37;;;;;;;1.40;1.30;;;17.40;98.00;;;;;;5072458;28;20900;-73
2021/08/20 04:28:07;;;;;;;1.20;1.00;;;17.30;98.00;;;;;;5072510;28;20499;-73
2021/08/20 04:30:35;;;;;;;1.20;1.00;;;17.30;98.00;;;;;;5054342;28;20784;-75
2021/08/20 04:33:03;;;;;;;1.20;1.10;;;17.30;98.00;;;;;;5072293;28;20488;-73
2021/08/20 04:35:31;;;;;;;1.50;1.40;;;17.30;98.00;;;;;;5072207;28;20961;-74
2021/08/20 04:37:58;;;;;;;1.20;1.00;;;17.30;98.00;;;;;;5072242;28;20484;-73
2021/08/20 04:40:25;;;;;;;1.20;1.00;;;17.30;98.00;;;;;;5072302;28;20510;-74
2021/08/20 04:42:52;;;;;;;2.07;1.37;;;17.30;98.00;;;;;;5072055;28;20448;-73
2021/08/20 04:45:19;;;;;;;1.23;1.23;;;17.30;98.00;;;;;;5072388;28;20536;-74
2021/08/20 04:47:46;;;;;;;1.20;1.20;;;17.30;98.00;;;;;;5072273;28;20460;-73
2021/08/20 04:50:14;;;;;;;1.20;1.00;;;17.30;98.00;;;;;;5072039;28;20457;-73
2021/08/20 04:52:42;;;;;;;1.20;1.10;;;17.30;98.00;;;;;;5072038;28;20915;-73
2021/08/20 04:55:10;;;;;;;1.67;1.30;;;17.30;98.00;;;;;;5072253;28;20511;-73
2021/08/20 04:57:37;;;;;;;1.77;1.30;;;17.40;98.00;;;;;;5072225;28;20461;-75
2021/08/20 05:00:07;;;;;;;1.40;1.17;;;17.40;98.00;;;;;;5071911;28;20465;-73
2021/08/20 05:02:36;;;;;;;1.30;1.20;;;17.40;98.00;;;;;;5072000;28;20468;-73
2021/08/20 05:05:05;;;;;;;1.37;1.33;;;17.40;98.00;;;;;;5071882;28;20552;-73
2021/08/20 05:07:34;;;;;;;1.20;1.20;;;17.40;98.00;;;;;;5071704;28;20480;-74
2021/08/20 05:10:05;;;;;;;1.20;1.00;;;17.50;98.00;;;;;;5071561;28;20546;-74
2021/08/20 05:12:33;;;;;;;1.40;1.20;;;17.50;98.00;;;;;;5071433;28;20516;-73
2021/08/20 05:15:00;;;;;;;1.20;1.20;;;17.60;98.00;;;;;;5071693;28;20457;-74
2021/08/20 05:17:27;;;;;;;1.43;1.20;;;17.70;98.00;;;;;;5071679;28;20457;-73
2021/08/20 05:19:54;;;;;;;1.20;1.20;;;17.70;98.00;;;;;;5071598;28;20457;-73
2021/08/20 05:22:21;;;;;;;1.30;1.13;;;17.60;98.00;;;;;;5071383;28;20445;-73
2021/08/20 05:24:48;;;;;;;1.57;1.10;;;17.70;98.00;;;;;;5053069;28;20453;-73
2021/08/20 05:27:16;;;;;;;1.57;1.47;;;17.80;98.00;;;;;;5071385;28;20495;-73
2021/08/20 05:29:43;;;;;;;2.03;1.30;;;17.80;98.00;;;;;;5071232;28;20479;-73
2021/08/20 05:32:10;;;;;;;2.53;1.40;;;17.80;98.00;;;;;;5071082;28;20529;-75
2021/08/20 05:34:37;;;;;;;1.20;1.10;;;17.80;98.00;;;;;;5071237;28;20456;-74
2021/08/20 05:37:05;;;;;;;1.80;1.40;;;17.80;98.00;;;;;;5053615;28;20518;-73
2021/08/20 05:39:32;;;;;;;1.20;1.00;;;17.80;98.00;;;;;;5053565;28;20539;-73
2021/08/20 05:41:58;;;;;;;1.33;1.30;;;17.80;98.00;;;;;;5071244;28;20473;-75
2021/08/20 05:44:27;;;;;;;1.50;1.30;;;17.80;98.00;;;;;;5071028;28;20465;-73
2021/08/20 05:46:54;;;;;;;1.20;1.10;;;17.80;98.00;;;;;;5071050;28;20453;-74
2021/08/20 05:49:21;;;;;;;1.20;1.10;;;17.80;98.00;;;;;;5071022;28;20468;-73
2021/08/20 05:51:48;;;;;;;1.70;1.40;;;17.80;98.00;;;;;;5071024;28;20999;-74
2021/08/20 05:54:16;;;;;;;1.37;1.20;;;17.80;98.00;;;;;;5053355;28;20488;-73
2021/08/20 05:56:43;;;;;;;1.57;1.20;;;17.90;98.00;;;;;;5053346;28;20822;-73
2021/08/20 05:59:10;;;;;;;2.03;1.80;;;17.90;98.00;;;;;;5070883;28;20518;-76
2021/08/20 06:01:39;;;;;;;1.40;1.30;;;17.90;98.00;;;;;;5070922;28;20894;-76
2021/08/20 06:04:05;;;;;;;1.20;1.10;;;17.90;98.00;;;;;;5070858;28;21072;-77
2021/08/20 06:06:32;;;;;;;1.20;1.13;;;18.10;98.00;;;;;;5071107;28;20488;-75
2021/08/20 06:08:59;;;;;;;1.20;1.10;;;18.20;98.00;;;;;;5070923;28;20539;-75
2021/08/20 06:11:26;;;;;;;1.20;1.10;;;18.10;98.00;;;;;;5053294;28;20963;-74
2021/08/20 06:13:54;;;;;;;1.20;1.20;;;18.00;98.00;;;;;;5053332;28;20538;-75
2021/08/20 06:16:21;;;;;;;2.00;1.53;;;18.10;98.00;;;;;;5071183;28;20453;-76
2021/08/20 06:18:50;;;;;;;1.90;1.30;;;18.20;98.00;;;;;;5070856;28;20492;-75
2021/08/20 06:21:18;;;;;;;1.40;1.27;;;18.20;98.00;;;;;;5070860;28;20495;-75
2021/08/20 06:23:45;;;;;;;1.40;1.30;;;18.20;98.00;;;;;;5070636;28;20485;-77
2021/08/20 06:26:12;;;;;;;1.40;1.20;;;18.30;98.00;;;;;;5070748;28;20526;-75
2021/08/20 06:28:39;;;;;;;1.20;1.10;;;18.40;98.00;;;;;;5070667;28;20488;-75
2021/08/20 06:31:06;;;;;;;1.40;1.33;;;18.40;98.00;;;;;;5052837;28;20465;-75
2021/08/20 06:33:34;;;;;;;1.57;1.20;;;18.40;98.00;;;;;;5070318;28;20520;-77
2021/08/20 06:36:02;;;;;;;1.60;1.13;;;18.50;98.00;;;;;;5073327;28;20867;-75
2021/08/20 06:38:30;;;;;;;1.20;1.10;;;18.40;98.00;;;;;;5074273;28;20554;-74
2021/08/20 06:40:57;;;;;;;1.40;1.20;;;18.50;98.00;;;;;;5074453;28;20515;-75
2021/08/20 06:43:24;;;;;;;2.63;1.40;;;18.60;98.00;;;;;;5074342;28;20859;-76
2021/08/20 06:45:51;;;;;;;1.50;1.30;;;18.60;98.00;;;;;;5056814;28;20456;-76
2021/08/20 06:48:19;;;;;;;1.20;1.17;;;18.70;98.00;;;;;;5074267;28;21120;-77
2021/08/20 06:50:46;;;;;;;1.40;1.33;;;18.70;98.00;;;;;;5073812;28;20500;-75
2021/08/20 06:53:17;;;;;;;1.20;1.10;;;18.80;98.00;;;;;;5074244;28;20523;-75
2021/08/20 06:55:44;;;;;;;1.50;1.40;;;19.00;98.00;;;;;;5073648;28;20457;-75
2021/08/20 06:58:12;;;;;;;1.90;1.60;;;19.10;98.00;;;;;;5074217;28;20974;-77
2021/08/20 07:00:39;;;;;;;1.30;1.10;;;19.10;98.00;;;;;;5074180;28;20456;-75
2021/08/20 07:03:06;;;;;;;1.20;1.10;;;19.00;98.00;;;;;;5074048;28;20453;-75
2021/08/20 07:05:33;;;;;;;1.20;1.10;;;19.20;98.00;;;;;;5056466;28;20864;-75
2021/08/20 07:08:00;;;;;;;1.30;1.13;;;19.30;98.00;;;;;;5073953;28;20456;-75
2021/08/20 07:10:29;;;;;;;2.23;1.10;;;19.30;98.00;;;;;;5073957;28;20488;-75
2021/08/20 07:12:55;;;;;;;1.20;1.20;;;19.20;98.00;;;;;;5073794;28;20537;-75
2021/08/20 07:15:23;;;;;;;1.20;1.20;;;19.30;98.00;;;;;;5073881;28;20492;-77
2021/08/20 07:17:50;;;;;;;1.80;1.40;;;19.20;98.00;;;;;;5056066;28;20457;-75
2021/08/20 07:20:17;;;;;;;1.40;1.20;;;19.30;98.00;;;;;;5073866;28;20942;-75
2021/08/20 07:22:44;;;;;;;1.20;1.20;;;19.40;98.00;;;;;;5073695;28;20461;-74
2021/08/20 07:25:14;;;;;;;1.30;1.30;;;19.50;98.00;;;;;;5073807;28;20460;-75
2021/08/20 07:27:42;;;;;;;1.43;1.37;;;19.50;98.00;;;;;;5073648;28;20506;-75
2021/08/20 07:30:14;;;;;;;1.40;1.20;;;19.70;98.00;;;;;;5073692;28;20512;-75
2021/08/20 07:32:43;;;;;;;1.50;1.33;;;19.80;98.00;;;;;;5073387;28;20477;-73
2021/08/20 07:35:10;;;;;;;1.23;1.13;;;20.00;98.00;;;;;;5056295;28;20449;-74
2021/08/20 07:37:37;;;;;;;1.80;1.47;;;20.00;98.00;;;;;;5073662;28;20449;-76
2021/08/20 07:40:04;;;;;;;1.27;1.23;;;20.10;98.00;;;;;;5055864;28;20969;-75
2021/08/20 07:42:31;;;;;;;1.70;1.20;;;20.10;98.00;;;;;;5073238;28;20488;-75
2021/08/20 07:45:00;;;;;;;1.57;1.50;;;20.20;98.00;;;;;;5073365;28;20456;-75
2021/08/20 07:47:28;;;;;;;1.70;1.30;;;20.40;98.00;;;;;;5072040;28;20453;-75
2021/08/20 07:49:54;;;;;;;1.40;1.27;;;20.40;98.00;;;;;;5073222;28;20748;-77
2021/08/20 07:52:22;;;;;;;1.20;1.20;;;20.50;98.00;;;;;;5073136;28;20457;-75
2021/08/20 07:54:50;;;;;;;1.93;1.37;;;20.50;98.00;;;;;;5073047;28;20507;-75
2021/08/20 07:57:20;;;;;;;1.80;1.63;;;20.50;98.00;;;;;;5073263;28;20456;-75
2021/08/20 07:59:47;;;;;;;1.50;1.40;;;20.50;98.00;;;;;;5055814;28;20452;-76
2021/08/20 08:02:15;;;;;;;2.47;1.90;;;20.60;98.00;;;;;;5073298;28;20453;-76
2021/08/20 08:04:43;;;;;;;1.53;1.20;;;20.50;98.00;;;;;;5072968;28;20453;-75
2021/08/20 08:07:10;;;;;;;1.57;1.20;;;20.60;98.00;;;;;;5073154;28;20475;-75
2021/08/20 08:09:36;;;;;;;1.47;1.43;;;20.70;98.00;;;;;;5055027;28;20453;-75
2021/08/20 08:12:04;;;;;;;3.13;1.73;;;20.80;98.00;;;;;;5072850;28;20453;-75
2021/08/20 08:14:32;;;;;;;1.20;1.10;;;21.00;98.00;;;;;;5072642;28;20527;-75
2021/08/20 08:16:59;;;;;;;1.37;1.33;;;21.00;98.00;;;;;;5072752;28;20967;-75
2021/08/20 08:19:29;;;;;;;1.37;1.33;;;21.10;98.00;;;;;;5072719;28;20464;-76
2021/08/20 08:21:56;;;;;;;1.70;1.40;;;21.00;98.00;;;;;;5072628;28;20455;-75
2021/08/20 08:24:23;;;;;;;1.60;1.23;;;21.10;98.00;;;;;;5072510;28;20452;-76
2021/08/20 08:26:50;;;;;;;1.40;1.10;;;21.10;98.00;;;;;;5072729;28;20469;-75
2021/08/20 08:29:17;;;;;;;1.57;1.30;;;21.20;98.00;;;;;;5072478;28;20496;-75
2021/08/20 08:31:44;;;;;;;1.80;1.47;;;21.40;98.00;;;;;;5072614;28;20484;-75
2021/08/20 08:34:11;;;;;;;1.50;1.33;;;21.50;98.00;;;;;;5072252;28;20539;-75
2021/08/20 08:36:39;;;;;;;1.50;1.33;;;21.60;98.00;;;;;;5054606;28;20487;-76
2021/08/20 08:39:14;;;;;;;1.50;1.30;;;21.50;98.00;;;;;;5072427;28;20864;-74
2021/08/20 08:41:40;;;;;;;1.30;1.30;;;21.70;98.00;;;;;;5072394;28;20459;-77
2021/08/20 08:44:07;;;;;;;1.50;1.30;;;21.70;98.00;;;;;;5072140;28;20935;-75
2021/08/20 08:46:37;;;;;;;1.30;1.20;;;21.60;98.00;;;;;;5072100;28;20948;-75
2021/08/20 08:49:04;;;;;;;1.50;1.27;;;21.80;98.00;;;;;;5072167;28;20465;-76
2021/08/20 08:51:32;;;;;;;1.93;1.57;;;21.70;98.00;;;;;;5072087;28;20488;-76
2021/08/20 08:54:00;;;;;;;1.57;1.30;;;21.70;98.00;;;;;;5071965;28;20539;-75
2021/08/20 08:56:27;;;;;;;1.20;1.20;;;21.60;98.00;;;;;;5072320;28;20480;-76
2021/08/20 08:58:54;;;;;;;2.07;1.50;;;21.70;98.00;;;;;;5071423;28;20553;-76
2021/08/20 09:01:27;;;;;;;3.00;1.30;;;21.80;98.00;;;;;;5071997;28;20460;-76
2021/08/20 09:04:08;;;;;;;1.20;1.10;;;21.90;98.00;;;;;;5071858;28;20451;-75
2021/08/20 09:06:39;;;;;;;1.30;1.30;;;21.90;98.00;;;;;;5054288;28;20468;-75
2021/08/20 09:09:10;;;;;;;1.60;1.50;;;22.00;98.00;;;;;;5054234;28;20801;-76
2021/08/20 09:11:37;;;;;;;2.23;1.40;;;22.00;98.00;;;;;;5071654;28;20449;-74
2021/08/20 09:14:04;;;;;;;2.43;1.50;;;22.20;98.00;;;;;;5071522;28;20481;-75
2021/08/20 09:16:37;;;;;;;2.13;1.40;;;22.30;98.00;;;;;;5071652;28;20477;-75
2021/08/20 09:19:15;;;;;;;1.43;1.30;;;22.40;98.00;;;;;;5071570;28;20461;-76
2021/08/20 09:21:44;;;;;;;1.30;1.30;;;22.40;98.00;;;;;;5071433;28;20495;-75
2021/08/20 09:24:32;;;;;;;2.23;1.40;;;22.50;98.00;;;;;;5071283;28;20453;-75
2021/08/20 09:27:18;;;;;;;1.70;1.57;;;22.80;98.00;;;;;;5071274;28;20460;-75
2021/08/20 09:30:01;;;;;;;1.50;1.47;;;23.00;98.00;;;;;;5058297;28;20500;-74
2021/08/20 09:32:28;;;;;;;2.93;1.80;;;23.20;98.00;;;;;;5071185;28;20548;-76
2021/08/20 09:34:57;;;;;;;1.30;1.20;;;23.30;98.00;;;;;;5071158;28;20480;-76
2021/08/20 09:37:25;;;;;;;1.30;1.30;;;23.40;98.00;;;;;;5071253;28;20457;-75
2021/08/20 09:39:58;;;;;;;1.73;1.70;;;23.50;98.00;;;;;;5071324;28;20463;-74
2021/08/20 09:42:25;;;;;;;2.33;1.63;;;23.60;98.00;;;;;;5071232;28;20456;-75
2021/08/20 09:45:15;;;;;;;2.00;1.67;;;23.50;98.00;;;;;;5071087;28;20457;-75
2021/08/20 09:47:44;;;;;;;1.50;1.47;;;23.40;98.00;;;;;;5071162;28;20835;-75
2021/08/20 09:50:12;;;;;;;3.30;2.03;;;23.40;98.00;;;;;;5071181;28;20492;-75
2021/08/20 09:52:39;;;;;;;2.20;1.50;;;23.50;98.00;;;;;;5071096;28;20484;-76
2021/08/20 09:55:08;;;;;;;1.73;1.47;;;23.60;98.00;;;;;;5070971;28;20566;-76
2021/08/20 09:57:39;;;;;;;2.00;1.40;;;23.60;98.00;;;;;;5071068;28;20465;-75
2021/08/20 10:00:10;;;;;;;1.50;1.47;;;23.50;98.00;;;;;;5070904;28;20467;-77
2021/08/20 10:02:39;;;;;;;1.60;1.33;;;23.20;98.00;;;;;;5070925;28;20452;-76
2021/08/20 10:05:10;;;;;;;1.87;1.60;;;23.10;98.00;;;;;;5071067;28;20448;-76
2021/08/20 10:07:40;;;;;;;1.90;1.50;;;22.90;98.00;;;;;;5052889;28;20460;-76
2021/08/20 10:10:10;;;;;;;2.37;1.50;;;22.80;98.00;;;;;;5070345;28;20492;-76
2021/08/20 10:12:41;;;;;;;1.20;1.20;;;22.80;98.00;;;;;;5070975;28;20881;-75
2021/08/20 10:15:09;;;;;;;1.77;1.40;;;22.70;98.00;;;;;;5070754;28;20568;-76
2021/08/20 10:17:37;;;;;;;1.87;1.40;;;22.70;98.00;;;;;;5071275;28;20457;-76
2021/08/20 10:20:06;;;;;;;1.40;1.30;;;22.80;98.00;;;;;;5052986;28;20503;-76
2021/08/20 10:22:33;;;;;;;1.30;1.30;;;22.90;98.00;;;;;;5070877;28;20460;-75
2021/08/20 10:25:02;;;;;;;1.30;1.27;;;23.10;98.00;;;;;;5070843;28;20523;-76
2021/08/20 10:27:34;;;;;;;1.97;1.67;;;23.20;98.00;;;;;;5053321;28;20479;-75
2021/08/20 10:30:02;;;;;;;1.60;1.30;;;23.50;98.00;;;;;;5070728;28;20449;-75
2021/08/20 10:32:29;;;;;;;2.37;1.80;;;23.70;98.00;;;;;;5070551;28;20475;-77
2021/08/20 10:34:56;;;;;;;1.77;1.60;;;23.80;98.00;;;;;;5036218;28;20534;-75
2021/08/20 10:37:31;;;;;;;1.80;1.50;;;24.00;98.00;;;;;;5070686;28;20801;-77
2021/08/20 10:40:01;;;;;;;1.53;1.40;;;23.80;98.00;;;;;;5069697;28;20462;-76
2021/08/20 10:42:40;;;;;;;1.57;1.50;;;23.60;98.00;;;;;;5070492;28;20456;-75
2021/08/20 10:45:09;;;;;;;1.80;1.43;;;23.90;98.00;;;;;;5070576;28;20460;-75
2021/08/20 10:47:36;;;;;;;1.80;1.50;;;24.20;97.90;;;;;;5070423;28;20507;-76
2021/08/20 10:50:10;;;;;;;1.80;1.40;;;24.40;98.00;;;;;;5070518;28;20962;-75
2021/08/20 10:52:40;;;;;;;1.80;1.50;;;24.70;93.70;;;;;;5070451;28;20480;-75
2021/08/20 10:55:12;;;;;;;1.50;1.30;;;24.60;94.00;;;;;;5052791;28;20485;-75
2021/08/20 10:58:03;;;;;;;2.10;1.63;;;24.10;95.00;;;;;;5070337;28;20449;-75
2021/08/20 11:00:32;;;;;;;1.93;1.43;;;24.10;96.80;;;;;;5071183;28;20861;-76
2021/08/20 11:03:00;;;;;;;1.77;1.70;;;24.20;94.10;;;;;;5070604;28;20518;-76
2021/08/20 11:05:42;;;;;;;1.90;1.67;;;24.50;94.00;;;;;;5070556;28;20483;-76
2021/08/20 11:08:38;;;;;;;2.23;1.80;;;24.80;93.40;;;;;;5052648;28;20464;-76
2021/08/20 11:11:06;;;;;;;1.93;1.70;;;24.90;92.30;;;;;;5024288;28;20453;-76
2021/08/20 11:13:34;;;;;;;1.40;1.37;;;25.20;91.10;;;;;;5070119;28;20461;-76
2021/08/20 11:16:02;;;;;;;1.50;1.50;;;25.40;91.80;;;;;;5070594;28;20876;-76
2021/08/20 11:18:47;;;;;;;1.47;1.43;;;25.60;89.10;;;;;;5070242;28;20524;-75
2021/08/20 11:21:42;;;;;;;1.30;1.30;;;25.70;89.40;;;;;;5071568;28;20448;-76
2021/08/20 11:24:12;;;;;;;1.83;1.40;;;26.00;86.80;;;;;;5073724;28;20844;-76
2021/08/20 11:26:42;;;;;;;1.80;1.70;;;26.40;85.80;;;;;;5073841;28;20487;-75
2021/08/20 11:29:14;;;;;;;1.70;1.53;;;26.60;85.40;;;;;;5056382;28;20463;-75
2021/08/20 11:31:41;;;;;;;1.77;1.60;;;26.60;87.10;;;;;;5073716;28;20522;-75
2021/08/20 11:34:08;;;;;;;2.00;1.50;;;26.70;86.20;;;;;;5073587;28;20994;-76
2021/08/20 11:36:42;;;;;;;2.10;1.60;;;26.40;86.80;;;;;;5056025;28;20890;-75
2021/08/20 11:39:12;;;;;;;1.90;1.60;;;25.90;86.50;;;;;;5073960;28;20457;-76
2021/08/20 11:41:43;;;;;;;1.43;1.40;;;25.10;88.10;;;;;;5073810;28;20489;-75
2021/08/20 11:44:13;;;;;;;2.17;1.40;;;24.90;90.00;;;;;;5073459;28;20449;-76
2021/08/20 11:46:42;;;;;;;2.50;1.70;;;24.90;91.00;;;;;;5073576;28;20958;-76
2021/08/20 11:49:11;;;;;;;2.23;1.60;;;25.40;89.90;;;;;;5073264;28;20872;-76
2021/08/20 11:51:41;;;;;;;1.63;1.43;;;25.60;87.60;;;;;;5073611;28;20488;-76
2021/08/20 11:54:10;;;;;;;1.50;1.30;;;25.50;88.20;;;;;;5073137;28;20526;-76
2021/08/20 11:56:48;;;;;;;1.70;1.50;;;25.50;89.10;;;;;;5072700;28;20487;-75
2021/08/20 11:59:17;;;;;;;2.60;1.80;;;25.40;91.30;;;;;;5073756;28;20510;-76
2021/08/20 12:01:44;;;;;;;1.80;1.60;;;25.20;92.80;;;;;;5056458;28;20461;-76
2021/08/20 12:04:11;;;;;;;1.93;1.47;;;25.00;92.80;;;;;;5074199;28;20445;-75
2021/08/20 12:06:38;;;;;;;1.77;1.40;;;24.80;93.10;;;;;;5074094;28;20810;-75
2021/08/20 12:09:12;;;;;;;1.90;1.60;;;25.00;93.20;;;;;;5073714;28;20453;-76
2021/08/20 12:11:42;;;;;;;1.30;1.30;;;24.80;91.60;;;;;;5074155;28;20449;-77
2021/08/20 12:14:17;;;;;;;1.83;1.57;;;24.80;93.30;;;;;;5073292;28;20489;-76
2021/08/20 12:16:46;;;;;;;2.07;1.60;;;24.80;91.30;;;;;;5073011;28;20858;-76
2021/08/20 12:19:16;;;;;;;1.27;1.23;;;25.00;92.50;;;;;;5073490;28;20456;-76
2021/08/20 12:21:45;;;;;;;3.57;1.70;;;25.40;91.60;;;;;;5074007;28;20461;-77
2021/08/20 12:24:13;;;;;;;1.70;1.40;;;25.80;91.40;;;;;;5073428;28;20453;-76
2021/08/20 12:26:40;;;;;;;2.20;1.90;;;26.20;89.50;;;;;;5072769;28;20485;-76
2021/08/20 12:29:15;;;;;;;1.53;1.33;;;26.50;90.20;;;;;;5072674;28;20488;-76
2021/08/20 12:31:55;;;;;;;1.33;1.33;;;26.60;87.90;;;;;;5073338;28;21019;-76
2021/08/20 12:34:27;;;;;;;2.17;1.70;;;26.80;86.70;;;;;;5072059;28;20571;-76
2021/08/20 12:36:55;;;;;;;1.57;1.50;;;26.80;87.90;;;;;;5072931;28;20534;-77
2021/08/20 12:39:34;;;;;;;1.60;1.60;;;26.50;87.60;;;;;;5054624;28;20480;-76
2021/08/20 12:42:19;;;;;;;1.67;1.60;;;26.30;88.20;;;;;;5072322;28;20483;-76
2021/08/20 12:44:46;;;;;;;3.10;2.20;;;26.40;87.50;;;;;;5072358;28;20452;-76
2021/08/20 12:47:15;;;;;;;3.53;2.23;;;26.70;86.90;;;;;;5072279;28;20538;-77
2021/08/20 12:50:01;;;;;;;9.60;5.43;;;26.90;85.90;;;;;;5072148;28;20461;-76
2021/08/20 12:52:29;;;;;;;4.10;2.60;;;27.10;85.20;;;;;;5072183;28;20468;-76
2021/08/20 12:54:56;;;;;;;2.83;2.20;;;27.40;83.70;;;;;;5071881;28;21036;-76
2021/08/20 12:57:23;;;;;;;1.90;1.63;;;27.60;84.00;;;;;;5054633;28;20470;-76